Hwange National Park, Zimbabwe
Current Conditions -  °F | °C
As of 5:00 PM on Monday 22 Dec 2014 (Local Time) from FBFT Reporting Station
Scattered Clouds Scattered Clouds  
Wind Chill: 88°   Ceiling: Unl
Heat Index: 88°   Visibility: 6mi
Dew Point: 59°   Wind: 13mph
Humidity: 38%   Direction: 130°SE
Pressure: 29.88"   Gusts: NA
Location:  18.63°S, 27.03°E
Report Text: FBFT 221500Z 13011KT 9999 SCT030 FEW035CB 31/15 Q1012
Loading
Personal Weather Stations






























Interactive Weather Map New forecast layout! Learn more

10-Day Weather Forecast

Advertisements
Track Severe Weather on mobile